Search for airport 
image banner adimage banner adimage banner ad
image banner ad

CCG4 - Mcewen

Located in Moncton, Canada

ICAO - CCG4, IATA -

Data provided by Airmate  

General information

Coordinates: N46°9'14" W64°46'7"
Elevation is 214 feet MSL.
Magnetic variation is -17.9333° East
View others Airports in New Brunswick

Operational data

Special qualification required
Current time UTC:
Current local time:
METAR: CYQM 191200Z 23010G16KT 15SM FEW012 BKN027 07/05 A2955 RMK CU1SC7 CU TR SLP009
TAF: TAF CYQM 191138Z 1912/2012 22008KT P6SM SCT020 SCT060 TEMPO 1912/1915 BKN020 BKN060 FM191500 25015KT P6SM BKN025 BKN050 TEMPO 1918/2001 P6SM -SHRA BKN020 BKN040 FM200100 25010KT P6SM BKN020 RMK NXT FCST BY 191800Z
View NOTAMs / SUP AIP / TFR affecting this airport [VIEW]
Communications frequencies: [VIEW]

Runways:

RWY identifierQFULength (ft)Width (ft)SurfaceLDA (ft)
08300080ASP+GRS
26300080ASP+GRS

Airport contact information

Address: Moncton Canada

Satellite view of CCG4